createdAt,value
2023-05-19T00:01:33.029Z,2.90
2023-05-19T00:04:05.164Z,3.17
2023-05-19T00:06:33.237Z,2.77
2023-05-19T00:09:09.461Z,3.03
2023-05-19T00:11:39.369Z,3.03
2023-05-19T00:14:09.626Z,2.93
2023-05-19T00:16:38.152Z,2.80
2023-05-19T00:19:10.312Z,3.03
2023-05-19T00:21:39.055Z,3.10
2023-05-19T00:24:07.243Z,3.27
2023-05-19T00:26:34.415Z,2.80
2023-05-19T00:29:01.342Z,3.37
2023-05-19T00:31:28.519Z,3.33
2023-05-19T00:33:55.572Z,2.60
2023-05-19T00:36:22.831Z,2.90
2023-05-19T00:38:51.087Z,2.70
2023-05-19T00:41:18.321Z,2.70
2023-05-19T00:43:45.670Z,2.87
2023-05-19T00:46:12.792Z,3.70
2023-05-19T00:48:39.735Z,3.00
2023-05-19T00:51:07.121Z,2.83
2023-05-19T00:53:35.499Z,2.80
2023-05-19T00:56:03.534Z,3.27
2023-05-19T00:58:33.193Z,2.63
2023-05-19T01:01:07.317Z,3.07
2023-05-19T01:03:36.273Z,2.60
2023-05-19T01:06:07.472Z,2.70
2023-05-19T01:08:37.119Z,3.33
2023-05-19T01:11:07.141Z,3.40
2023-05-19T01:13:36.276Z,3.23
2023-05-19T01:16:17.615Z,2.90
2023-05-19T01:19:01.641Z,2.87
2023-05-19T01:21:52.283Z,2.90
2023-05-19T01:24:58.768Z,3.33
2023-05-19T01:27:56.281Z,3.00
2023-05-19T01:30:37.706Z,3.20
2023-05-19T01:33:11.022Z,3.20
2023-05-19T01:35:40.440Z,3.33
2023-05-19T01:38:11.458Z,3.37
2023-05-19T01:40:41.647Z,3.60
2023-05-19T01:43:17.164Z,3.43
2023-05-19T01:45:45.638Z,3.10
2023-05-19T01:48:14.518Z,3.67
2023-05-19T01:50:42.508Z,3.17
2023-05-19T01:53:09.848Z,3.47
2023-05-19T01:55:49.577Z,3.10
2023-05-19T01:58:46.956Z,3.13
2023-05-19T02:01:39.576Z,3.67
2023-05-19T02:04:39.430Z,3.17
2023-05-19T02:07:41.603Z,2.63
2023-05-19T02:10:31.102Z,2.90
2023-05-19T02:13:04.477Z,3.23
2023-05-19T02:15:41.995Z,3.33
2023-05-19T02:18:12.443Z,3.30
2023-05-19T02:20:40.178Z,3.10
2023-05-19T02:23:07.389Z,3.53
2023-05-19T02:25:34.504Z,2.90
2023-05-19T02:28:01.480Z,2.93
2023-05-19T02:30:28.352Z,3.27
2023-05-19T02:32:55.449Z,3.00
2023-05-19T02:35:22.475Z,2.90
2023-05-19T02:37:49.420Z,3.20
2023-05-19T02:40:16.492Z,3.20
2023-05-19T02:42:43.498Z,3.10
2023-05-19T02:45:11.006Z,2.90
2023-05-19T02:47:38.408Z,2.80
2023-05-19T02:50:06.694Z,3.23
2023-05-19T02:52:33.920Z,3.03
2023-05-19T02:55:00.991Z,3.27
2023-05-19T02:57:31.660Z,3.10
2023-05-19T02:59:58.690Z,3.43
2023-05-19T03:02:25.756Z,3.10
2023-05-19T03:04:53.210Z,3.17
2023-05-19T03:07:25.389Z,3.47
2023-05-19T03:09:53.014Z,3.03
2023-05-19T03:12:20.004Z,3.17
2023-05-19T03:14:47.671Z,3.10
2023-05-19T03:17:14.720Z,2.93
2023-05-19T03:19:42.195Z,3.30
2023-05-19T03:22:09.111Z,3.67
2023-05-19T03:24:36.811Z,3.37
2023-05-19T03:27:05.865Z,3.13
2023-05-19T03:29:32.800Z,3.33
2023-05-19T03:31:59.953Z,3.07
2023-05-19T03:34:26.968Z,3.17
2023-05-19T03:36:53.921Z,3.30
2023-05-19T03:39:20.860Z,2.80
2023-05-19T03:41:47.875Z,3.00
2023-05-19T03:44:14.774Z,3.13
2023-05-19T03:46:41.715Z,3.33
2023-05-19T03:49:08.693Z,3.50
2023-05-19T03:51:36.635Z,3.50
2023-05-19T03:54:04.568Z,3.30
2023-05-19T03:56:32.784Z,3.77
2023-05-19T03:59:00.288Z,3.03
2023-05-19T04:01:27.227Z,3.27
2023-05-19T04:03:54.103Z,3.30
2023-05-19T04:06:21.219Z,2.90
2023-05-19T04:08:48.123Z,3.40
2023-05-19T04:11:15.099Z,3.30
2023-05-19T04:13:42.086Z,3.03
2023-05-19T04:16:09.200Z,3.33
2023-05-19T04:18:36.164Z,3.00
2023-05-19T04:21:03.146Z,3.20
2023-05-19T04:23:30.092Z,3.40
2023-05-19T04:25:58.969Z,3.50
2023-05-19T04:28:25.898Z,3.10
2023-05-19T04:30:52.968Z,3.10
2023-05-19T04:33:20.168Z,3.60
2023-05-19T04:35:47.182Z,3.87
2023-05-19T04:38:18.645Z,3.10
2023-05-19T04:40:45.651Z,3.30
2023-05-19T04:43:12.600Z,3.23
2023-05-19T04:45:42.492Z,3.30
2023-05-19T04:48:09.512Z,3.17
2023-05-19T04:50:38.572Z,3.73
2023-05-19T04:53:05.526Z,3.57
2023-05-19T04:55:32.953Z,3.83
2023-05-19T04:57:59.931Z,4.13
2023-05-19T05:00:27.062Z,4.03
2023-05-19T05:02:54.009Z,4.47
2023-05-19T05:05:21.150Z,4.30
2023-05-19T05:07:48.093Z,4.30
2023-05-19T05:10:15.288Z,3.60
2023-05-19T05:12:42.622Z,3.20
2023-05-19T05:15:10.492Z,3.10
2023-05-19T05:17:37.879Z,3.45
2023-05-19T05:20:06.677Z,3.08
2023-05-19T05:22:34.286Z,3.38
2023-05-19T05:25:03.041Z,3.97
2023-05-19T05:27:30.665Z,4.20
2023-05-19T05:29:59.211Z,4.03
2023-05-19T05:32:26.348Z,4.00
2023-05-19T05:34:53.586Z,4.20
2023-05-19T05:37:20.570Z,4.10
2023-05-19T05:39:47.468Z,3.80
2023-05-19T05:42:14.451Z,3.88
2023-05-19T05:44:41.367Z,4.07
2023-05-19T05:47:08.977Z,4.18
2023-05-19T05:49:38.128Z,3.72
2023-05-19T05:52:06.914Z,3.97
2023-05-19T05:54:34.656Z,3.60
2023-05-19T05:57:02.711Z,3.70
2023-05-19T05:59:29.639Z,3.67
2023-05-19T06:01:56.617Z,3.53
2023-05-19T06:04:23.548Z,3.13
2023-05-19T06:06:52.591Z,3.30
2023-05-19T06:09:19.517Z,3.42
2023-05-19T06:11:46.461Z,3.45
2023-05-19T06:14:13.409Z,2.90
2023-05-19T06:16:40.328Z,2.80
2023-05-19T06:19:07.464Z,3.22
2023-05-19T06:21:34.496Z,2.97
2023-05-19T06:24:01.398Z,2.08
2023-05-19T06:26:28.367Z,2.55
2023-05-19T06:28:55.292Z,2.13
2023-05-19T06:31:22.988Z,1.70
2023-05-19T06:33:49.946Z,2.00
2023-05-19T06:36:16.892Z,1.65
2023-05-19T06:38:43.921Z,1.77
2023-05-19T06:41:10.977Z,1.75
2023-05-19T06:43:38.204Z,1.45
2023-05-19T06:46:05.309Z,1.90
2023-05-19T06:48:32.308Z,1.90
2023-05-19T06:50:59.268Z,1.50
2023-05-19T06:53:26.375Z,1.50
2023-05-19T06:55:59.306Z,1.45
2023-05-19T06:58:27.961Z,1.70
2023-05-19T07:00:54.908Z,1.67
2023-05-19T07:03:21.912Z,2.22
2023-05-19T07:05:49.021Z,1.70
2023-05-19T07:08:16.412Z,1.77
2023-05-19T07:10:43.532Z,1.90
2023-05-19T07:13:10.516Z,1.30
2023-05-19T07:15:37.524Z,1.67
2023-05-19T07:18:04.782Z,1.80
2023-05-19T07:20:31.957Z,1.60
2023-05-19T07:22:59.264Z,1.50
2023-05-19T07:25:28.693Z,1.60
2023-05-19T07:27:55.716Z,1.75
2023-05-19T07:30:22.759Z,1.60
2023-05-19T07:32:49.659Z,1.42
2023-05-19T07:35:16.677Z,1.52
2023-05-19T07:37:43.735Z,1.50
2023-05-19T07:40:10.979Z,1.73
2023-05-19T07:42:37.829Z,1.75
2023-05-19T07:45:05.323Z,1.40
2023-05-19T07:47:32.330Z,1.50
2023-05-19T07:49:59.245Z,1.52
2023-05-19T07:52:26.772Z,1.92
2023-05-19T07:54:53.623Z,1.70
2023-05-19T07:57:20.666Z,1.63
2023-05-19T07:59:47.618Z,1.50
2023-05-19T08:02:14.623Z,1.13
2023-05-19T08:04:41.615Z,1.60
2023-05-19T08:07:08.774Z,1.80
2023-05-19T08:09:35.849Z,1.80
2023-05-19T08:12:04.922Z,1.50
2023-05-19T08:14:33.371Z,1.55
2023-05-19T08:17:00.702Z,1.95
2023-05-19T08:19:27.760Z,1.48
2023-05-19T08:21:55.816Z,1.60
2023-05-19T08:24:22.794Z,1.45
2023-05-19T08:26:49.688Z,1.40
2023-05-19T08:29:16.767Z,1.50
2023-05-19T08:31:43.793Z,1.50
2023-05-19T08:34:10.997Z,1.45
2023-05-19T08:36:37.959Z,1.50
2023-05-19T08:39:05.182Z,1.45
2023-05-19T08:41:32.589Z,1.40
2023-05-19T08:43:59.851Z,1.52
2023-05-19T08:46:29.131Z,1.60
2023-05-19T08:49:04.629Z,1.77
2023-05-19T08:51:47.220Z,1.75
2023-05-19T08:54:18.637Z,1.80
2023-05-19T08:56:46.543Z,1.48
2023-05-19T08:59:18.245Z,1.70
2023-05-19T09:01:46.694Z,1.70
2023-05-19T09:04:14.355Z,1.35
2023-05-19T09:06:42.533Z,1.70
2023-05-19T09:09:09.618Z,1.25
2023-05-19T09:11:37.773Z,1.40
2023-05-19T09:14:05.799Z,1.73
2023-05-19T09:16:34.076Z,1.50
2023-05-19T09:19:01.537Z,1.52
2023-05-19T09:21:33.204Z,5.88
2023-05-19T09:24:09.605Z,1.77
2023-05-19T09:26:39.297Z,4.00
2023-05-19T09:29:16.600Z,4.10
2023-05-19T09:31:51.808Z,3.60
2023-05-19T09:34:21.088Z,1.52
2023-05-19T09:36:54.806Z,1.50
2023-05-19T09:39:24.101Z,1.60
2023-05-19T09:41:58.456Z,1.45
2023-05-19T09:44:32.819Z,1.35
2023-05-19T09:47:00.149Z,1.48
2023-05-19T09:49:30.299Z,1.60
2023-05-19T09:51:59.481Z,1.50
2023-05-19T09:54:32.089Z,1.38
2023-05-19T09:57:03.780Z,1.73
2023-05-19T09:59:33.430Z,1.42
2023-05-19T10:02:02.319Z,2.30
2023-05-19T10:04:31.346Z,1.67
2023-05-19T10:07:05.458Z,1.60
2023-05-19T10:09:34.047Z,1.98
2023-05-19T10:12:02.486Z,1.50
2023-05-19T10:14:30.229Z,1.63
2023-05-19T10:17:00.736Z,1.70
2023-05-19T10:19:29.235Z,1.20
2023-05-19T10:21:56.983Z,1.30
2023-05-19T10:24:24.189Z,1.70
2023-05-19T10:26:58.033Z,1.80
2023-05-19T10:29:32.900Z,1.65
2023-05-19T10:32:10.409Z,1.65
2023-05-19T10:35:20.830Z,1.70
2023-05-19T10:38:12.837Z,1.65
2023-05-19T10:41:02.670Z,1.35
2023-05-19T10:44:20.722Z,1.85
2023-05-19T10:46:47.660Z,2.10
2023-05-19T10:49:24.361Z,1.67
2023-05-19T10:51:56.616Z,1.65
2023-05-19T10:54:47.643Z,2.78
2023-05-19T10:57:17.091Z,1.30
2023-05-19T10:59:47.308Z,1.63
2023-05-19T11:02:43.331Z,1.52
2023-05-19T11:05:18.344Z,1.27
2023-05-19T11:07:57.194Z,1.48
2023-05-19T11:10:25.240Z,1.17
2023-05-19T11:12:52.794Z,1.40
2023-05-19T11:15:27.639Z,1.20
2023-05-19T11:17:55.304Z,1.40
2023-05-19T11:20:28.144Z,2.20
2023-05-19T11:23:05.668Z,1.40
2023-05-19T11:25:44.686Z,1.60
2023-05-19T11:28:13.328Z,1.50
2023-05-19T11:30:45.432Z,1.52
2023-05-19T11:33:14.104Z,1.63
2023-05-19T11:35:42.862Z,1.35
2023-05-19T11:38:11.658Z,1.50
2023-05-19T11:40:39.484Z,1.05
2023-05-19T11:43:06.614Z,1.25
2023-05-19T11:45:35.068Z,1.40
2023-05-19T11:48:05.541Z,0.90
2023-05-19T11:50:33.343Z,1.20
2023-05-19T11:53:01.550Z,1.13
2023-05-19T11:55:29.613Z,1.10
2023-05-19T11:58:05.203Z,1.30
2023-05-19T12:00:40.085Z,1.20
2023-05-19T12:03:09.202Z,1.30
2023-05-19T12:05:43.506Z,1.60
2023-05-19T12:08:12.179Z,1.35
2023-05-19T12:10:40.711Z,6.82
2023-05-19T12:13:09.598Z,9.90
2023-05-19T12:15:37.521Z,1.40
2023-05-19T12:18:04.689Z,1.20
2023-05-19T12:20:32.893Z,1.08
2023-05-19T12:23:01.536Z,1.73
2023-05-19T12:25:31.079Z,1.42
2023-05-19T12:28:02.824Z,1.10
2023-05-19T12:30:33.021Z,1.30
2023-05-19T12:33:02.222Z,8.63
2023-05-19T12:35:36.176Z,11.15
2023-05-19T12:38:05.728Z,1.60
2023-05-19T12:40:35.522Z,1.20
2023-05-19T12:43:03.322Z,1.30
2023-05-19T12:45:35.534Z,1.50
2023-05-19T12:48:11.144Z,1.00
2023-05-19T12:50:38.717Z,1.40
2023-05-19T12:53:10.857Z,1.27
2023-05-19T12:55:45.682Z,1.50
2023-05-19T12:58:15.724Z,1.42
2023-05-19T13:00:47.358Z,1.13
2023-05-19T13:03:22.194Z,1.25
2023-05-19T13:05:51.610Z,1.40
2023-05-19T13:08:25.078Z,1.33
2023-05-19T13:10:52.036Z,1.20
2023-05-19T13:13:19.289Z,1.23
2023-05-19T13:15:50.806Z,1.10
2023-05-19T13:18:18.339Z,1.45
2023-05-19T13:20:47.190Z,1.08
2023-05-19T13:23:14.959Z,1.30
2023-05-19T13:25:42.812Z,1.25
2023-05-19T13:28:10.372Z,1.40
2023-05-19T13:30:40.585Z,1.40
2023-05-19T13:33:07.941Z,1.40
2023-05-19T13:35:38.396Z,1.30
2023-05-19T13:38:10.437Z,1.38
2023-05-19T13:40:38.563Z,1.50
2023-05-19T13:43:06.129Z,1.67
2023-05-19T13:45:33.301Z,1.30
2023-05-19T13:48:00.368Z,1.30
2023-05-19T13:50:27.440Z,1.60
2023-05-19T13:52:54.389Z,1.20
2023-05-19T13:55:21.583Z,1.23
2023-05-19T13:57:49.241Z,1.27
2023-05-19T14:00:18.337Z,1.38
2023-05-19T14:02:45.511Z,1.40
2023-05-19T14:05:12.958Z,1.20
2023-05-19T14:07:39.861Z,1.40
2023-05-19T14:10:07.699Z,1.40
2023-05-19T14:12:49.498Z,1.50
2023-05-19T14:15:23.732Z,1.90
2023-05-19T14:17:50.877Z,1.75
2023-05-19T14:20:17.853Z,1.27
2023-05-19T14:22:48.485Z,1.20
2023-05-19T14:25:15.478Z,1.35
2023-05-19T14:27:42.373Z,9.85
2023-05-19T14:30:09.987Z,1.30
2023-05-19T14:32:36.985Z,1.48
2023-05-19T14:35:04.948Z,1.50
2023-05-19T14:37:32.440Z,1.60
2023-05-19T14:39:59.732Z,1.67
2023-05-19T14:42:26.677Z,1.33
2023-05-19T14:44:53.654Z,1.40
2023-05-19T14:47:20.618Z,1.58
2023-05-19T14:49:47.648Z,1.30
2023-05-19T14:52:14.734Z,1.70
2023-05-19T14:54:41.665Z,1.90
2023-05-19T14:57:08.629Z,1.52
2023-05-19T14:59:39.201Z,1.60
2023-05-19T15:02:07.130Z,1.52
2023-05-19T15:04:33.986Z,1.98
2023-05-19T15:09:30.843Z,1.27
2023-05-19T15:11:58.089Z,1.50
2023-05-19T15:14:25.436Z,1.40
2023-05-19T15:16:53.335Z,1.60
2023-05-19T15:19:20.772Z,1.58
2023-05-19T15:21:49.924Z,1.45
2023-05-19T15:24:16.868Z,1.63
2023-05-19T15:26:43.790Z,1.50
2023-05-19T15:29:10.765Z,1.20
2023-05-19T15:31:38.458Z,1.42
2023-05-19T15:34:05.625Z,1.30
2023-05-19T15:36:32.576Z,1.50
2023-05-19T15:38:59.556Z,1.70
2023-05-19T15:41:26.775Z,1.33
2023-05-19T15:43:53.714Z,1.17
2023-05-19T15:46:20.781Z,1.48
2023-05-19T15:48:47.835Z,1.23
2023-05-19T15:51:14.892Z,1.08
2023-05-19T15:53:41.815Z,1.30
2023-05-19T15:56:08.787Z,1.30
2023-05-19T15:58:35.879Z,1.55
2023-05-19T16:01:03.596Z,1.73
2023-05-19T16:03:31.051Z,2.00
2023-05-19T16:05:58.199Z,1.30
2023-05-19T16:08:25.314Z,1.10
2023-05-19T16:10:53.603Z,1.20
2023-05-19T16:13:21.218Z,1.38
2023-05-19T16:15:48.720Z,1.48
2023-05-19T16:18:16.200Z,1.58
2023-05-19T16:20:44.082Z,1.25
2023-05-19T16:23:11.129Z,1.55
2023-05-19T16:25:38.020Z,1.42
2023-05-19T16:28:05.666Z,1.38
2023-05-19T16:30:32.885Z,1.30
2023-05-19T16:33:00.129Z,1.40
2023-05-19T16:35:29.945Z,1.17
2023-05-19T16:37:56.912Z,1.33
2023-05-19T16:40:24.055Z,1.20
2023-05-19T16:42:53.681Z,2.30
2023-05-19T16:45:20.832Z,5.05
2023-05-19T16:47:47.810Z,1.63
2023-05-19T16:50:14.862Z,1.10
2023-05-19T16:52:41.773Z,1.55
2023-05-19T16:55:09.219Z,2.88
2023-05-19T16:57:36.183Z,1.13
2023-05-19T17:00:03.704Z,1.80
2023-05-19T17:02:31.055Z,1.30
2023-05-19T17:04:58.015Z,1.45
2023-05-19T17:07:24.881Z,1.20
2023-05-19T17:09:53.525Z,1.40
2023-05-19T17:12:22.911Z,1.58
2023-05-19T17:14:52.073Z,1.35
2023-05-19T17:17:19.803Z,1.42
2023-05-19T17:19:49.289Z,1.58
2023-05-19T17:22:16.266Z,1.50
2023-05-19T17:24:43.201Z,1.30
2023-05-19T17:27:10.149Z,1.60
2023-05-19T17:29:37.168Z,1.42
2023-05-19T17:32:04.536Z,2.33
2023-05-19T17:34:31.440Z,1.45
2023-05-19T17:36:58.398Z,1.80
2023-05-19T17:39:25.281Z,2.30
2023-05-19T17:41:52.200Z,1.55
2023-05-19T17:44:19.085Z,1.20
2023-05-19T17:46:46.110Z,1.60
2023-05-19T17:49:13.884Z,1.33
2023-05-19T17:51:41.325Z,1.15
2023-05-19T17:54:08.735Z,1.10
2023-05-19T17:56:44.405Z,1.40
2023-05-19T17:59:11.752Z,1.42
2023-05-19T18:01:40.550Z,1.60
2023-05-19T18:04:08.261Z,1.15
2023-05-19T18:06:38.600Z,3.45
2023-05-19T18:09:09.771Z,1.60
2023-05-19T18:11:37.425Z,1.55
2023-05-19T18:14:04.343Z,1.75
2023-05-19T18:16:31.301Z,1.60
2023-05-19T18:18:58.439Z,1.23
2023-05-19T18:21:25.947Z,1.55
2023-05-19T18:23:52.808Z,1.40
2023-05-19T18:26:19.695Z,1.45
2023-05-19T18:28:46.597Z,1.70
2023-05-19T18:31:19.851Z,3.67
2023-05-19T18:33:47.667Z,2.30
2023-05-19T18:36:16.631Z,1.95
2023-05-19T18:38:43.774Z,1.90
2023-05-19T18:41:10.857Z,1.67
2023-05-19T18:43:38.749Z,1.60
2023-05-19T18:46:06.184Z,1.40
2023-05-19T18:48:33.391Z,1.65
2023-05-19T18:51:00.648Z,1.30
2023-05-19T18:53:27.578Z,1.50
2023-05-19T18:55:54.480Z,1.73
2023-05-19T18:58:21.628Z,2.80
2023-05-19T19:00:48.607Z,2.63
2023-05-19T19:03:15.974Z,2.03
2023-05-19T19:05:44.102Z,2.97
2023-05-19T19:08:11.116Z,3.28
2023-05-19T19:10:40.674Z,2.03
2023-05-19T19:13:07.784Z,2.50
2023-05-19T19:15:34.796Z,2.15
2023-05-19T19:18:02.204Z,2.10
2023-05-19T19:20:29.221Z,2.45
2023-05-19T19:22:56.841Z,2.15
2023-05-19T19:25:23.917Z,1.90
2023-05-19T19:27:51.263Z,1.60
2023-05-19T19:30:19.575Z,1.58
2023-05-19T19:32:46.542Z,1.83
2023-05-19T19:35:13.558Z,2.70
2023-05-19T19:37:40.432Z,1.95
2023-05-19T19:40:08.193Z,1.70
2023-05-19T19:42:35.425Z,1.58
2023-05-19T19:45:02.380Z,3.30
2023-05-19T19:47:29.709Z,2.88
2023-05-19T19:49:56.950Z,2.85
2023-05-19T19:52:23.921Z,2.58
2023-05-19T19:54:51.136Z,2.20
2023-05-19T19:57:18.423Z,2.00
2023-05-19T19:59:45.517Z,1.88
2023-05-19T20:02:12.483Z,1.67
2023-05-19T20:04:39.565Z,1.83
2023-05-19T20:07:06.556Z,2.17
2023-05-19T20:09:33.464Z,2.15
2023-05-19T20:12:00.360Z,1.85
2023-05-19T20:14:27.326Z,2.00
2023-05-19T20:16:54.260Z,1.85
2023-05-19T20:19:21.444Z,1.77
2023-05-19T20:21:48.349Z,3.15
2023-05-19T20:24:15.353Z,1.88
2023-05-19T20:26:42.269Z,1.88
2023-05-19T20:29:09.211Z,1.70
2023-05-19T20:31:36.109Z,1.90
2023-05-19T20:34:03.128Z,1.70
2023-05-19T20:36:30.059Z,1.75
2023-05-19T20:38:57.052Z,2.00
2023-05-19T20:41:24.010Z,1.75
2023-05-19T20:43:51.200Z,2.10
2023-05-19T20:46:18.118Z,2.00
2023-05-19T20:48:45.029Z,1.60
2023-05-19T20:51:11.922Z,1.73
2023-05-19T20:53:39.010Z,2.05
2023-05-19T20:56:07.341Z,2.35
2023-05-19T20:58:34.270Z,2.28
2023-05-19T21:01:01.196Z,2.10
2023-05-19T21:03:28.657Z,2.20
2023-05-19T21:05:55.934Z,2.20
2023-05-19T21:08:23.778Z,2.33
2023-05-19T21:10:51.369Z,2.20
2023-05-19T21:13:18.756Z,2.35
2023-05-19T21:15:45.772Z,2.30
2023-05-19T21:18:13.283Z,2.67
2023-05-19T21:20:40.941Z,2.38
2023-05-19T21:23:07.902Z,2.22
2023-05-19T21:25:34.833Z,2.28
2023-05-19T21:28:01.813Z,2.85
2023-05-19T21:30:28.778Z,3.42
2023-05-19T21:32:55.851Z,3.22
2023-05-19T21:35:25.686Z,3.88
2023-05-19T21:37:52.591Z,4.88
2023-05-19T21:40:20.172Z,3.55
2023-05-19T21:42:47.123Z,3.70
2023-05-19T21:45:14.062Z,4.10
2023-05-19T21:47:41.092Z,4.35
2023-05-19T21:50:08.886Z,5.18
2023-05-19T21:52:36.586Z,4.65
2023-05-19T21:55:03.696Z,4.25
2023-05-19T21:57:30.624Z,3.83
2023-05-19T21:59:57.617Z,3.67
2023-05-19T22:02:24.641Z,4.10
2023-05-19T22:04:51.761Z,4.00
2023-05-19T22:07:18.731Z,4.15
2023-05-19T22:09:48.212Z,3.78
2023-05-19T22:12:15.937Z,5.95
2023-05-19T22:14:42.841Z,4.55
2023-05-19T22:17:09.769Z,4.35
2023-05-19T22:19:36.914Z,2.90
2023-05-19T22:22:13.079Z,3.50
2023-05-19T22:24:41.598Z,3.65
2023-05-19T22:27:08.739Z,6.70
2023-05-19T22:29:38.491Z,6.90
2023-05-19T22:32:09.299Z,7.32
2023-05-19T22:34:36.244Z,8.27
2023-05-19T22:37:03.349Z,6.50
2023-05-19T22:39:30.200Z,3.92
2023-05-19T22:41:57.159Z,3.75
2023-05-19T22:44:24.058Z,3.65
2023-05-19T22:46:50.953Z,4.00
2023-05-19T22:49:17.867Z,4.05
2023-05-19T22:51:44.790Z,3.72
2023-05-19T22:54:11.728Z,3.17
2023-05-19T22:56:38.636Z,3.17
2023-05-19T22:59:05.881Z,2.42
2023-05-19T23:01:32.861Z,2.28
2023-05-19T23:03:59.827Z,2.53
2023-05-19T23:06:26.798Z,2.30
2023-05-19T23:09:02.535Z,2.53
2023-05-19T23:11:29.483Z,2.50
2023-05-19T23:13:56.787Z,2.70
2023-05-19T23:16:23.732Z,2.42
2023-05-19T23:18:50.594Z,2.30
2023-05-19T23:21:17.511Z,2.65
2023-05-19T23:23:44.402Z,2.63
2023-05-19T23:26:13.415Z,2.20
2023-05-19T23:28:42.757Z,2.72
2023-05-19T23:31:09.847Z,2.25
2023-05-19T23:33:36.798Z,2.40
2023-05-19T23:36:08.708Z,2.55
2023-05-19T23:38:36.832Z,2.35
2023-05-19T23:41:04.930Z,2.70
2023-05-19T23:43:32.474Z,2.20
2023-05-19T23:46:00.200Z,2.35
2023-05-19T23:48:31.230Z,2.60
2023-05-19T23:50:58.666Z,2.38
2023-05-19T23:53:25.924Z,2.38
2023-05-19T23:55:52.880Z,2.30
2023-05-19T23:58:19.793Z,2.10
